createdAt,value
2018-01-22T00:00:43.348Z,0
2018-01-22T00:01:44.921Z,0
2018-01-22T00:02:46.334Z,0
2018-01-22T00:03:47.777Z,0
2018-01-22T00:04:49.467Z,0
2018-01-22T00:05:50.849Z,0
2018-01-22T00:06:52.292Z,0
2018-01-22T00:07:53.740Z,0
2018-01-22T00:08:55.322Z,0
2018-01-22T00:09:57.035Z,0
2018-01-22T00:10:58.513Z,0
2018-01-22T00:11:59.975Z,0
2018-01-22T00:13:01.436Z,0
2018-01-22T00:14:02.932Z,0
2018-01-22T00:15:04.362Z,0
2018-01-22T00:16:05.839Z,0
2018-01-22T00:17:07.241Z,0
2018-01-22T00:18:08.610Z,0
2018-01-22T00:19:10.023Z,0
2018-01-22T00:20:11.418Z,0
2018-01-22T00:21:12.806Z,0
2018-01-22T00:22:14.243Z,0
2018-01-22T00:23:15.825Z,0
2018-01-22T00:24:17.537Z,0
2018-01-22T00:25:19.498Z,0
2018-01-22T00:26:21.244Z,0
2018-01-22T00:27:22.732Z,0
2018-01-22T00:28:24.120Z,0
2018-01-22T00:29:25.601Z,0
2018-01-22T00:30:27.157Z,0
2018-01-22T00:31:28.806Z,0
2018-01-22T00:32:30.585Z,0
2018-01-22T00:33:32.051Z,0
2018-01-22T00:34:33.534Z,0
2018-01-22T00:35:34.954Z,0
2018-01-22T00:36:36.366Z,0
2018-01-22T00:37:37.868Z,0
2018-01-22T00:38:39.237Z,0
2018-01-22T00:39:40.662Z,0
2018-01-22T00:40:42.112Z,0
2018-01-22T00:41:43.578Z,0
2018-01-22T00:42:45.276Z,0
2018-01-22T00:43:47.268Z,0
2018-01-22T00:44:49.301Z,0
2018-01-22T00:45:50.783Z,0
2018-01-22T00:46:52.221Z,0
2018-01-22T00:47:53.596Z,0
2018-01-22T00:48:55.357Z,0
2018-01-22T00:49:56.731Z,0
2018-01-22T00:50:58.230Z,0
2018-01-22T00:51:59.762Z,0
2018-01-22T00:53:01.266Z,0
2018-01-22T00:54:02.684Z,0
2018-01-22T00:55:04.123Z,0
2018-01-22T00:56:05.497Z,0
2018-01-22T00:57:06.911Z,0
2018-01-22T00:58:08.656Z,0
2018-01-22T00:59:10.404Z,0
2018-01-22T01:00:11.822Z,0
2018-01-22T01:01:13.279Z,0
2018-01-22T01:02:14.690Z,0
2018-01-22T01:03:16.080Z,0
2018-01-22T01:04:17.471Z,0
2018-01-22T01:05:19.233Z,0
2018-01-22T01:06:20.667Z,0
2018-01-22T01:07:22.234Z,0
2018-01-22T01:08:23.774Z,0
2018-01-22T01:09:25.201Z,0
2018-01-22T01:10:26.603Z,0
2018-01-22T01:11:28.580Z,0
2018-01-22T01:12:30.019Z,0
2018-01-22T01:13:31.623Z,0
2018-01-22T01:14:33.161Z,0
2018-01-22T01:15:34.560Z,0
2018-01-22T01:16:35.960Z,0
2018-01-22T01:17:37.516Z,0
2018-01-22T01:18:39.424Z,0
2018-01-22T01:19:40.861Z,0
2018-01-22T01:20:42.282Z,0
2018-01-22T01:21:43.801Z,0
2018-01-22T01:22:45.183Z,0
2018-01-22T01:23:46.670Z,0
2018-01-22T01:24:48.357Z,0
2018-01-22T01:25:49.997Z,0
2018-01-22T01:26:51.669Z,0
2018-01-22T01:27:53.240Z,0
2018-01-22T01:28:54.646Z,0
2018-01-22T01:29:56.068Z,0
2018-01-22T01:30:57.480Z,0
2018-01-22T01:31:58.858Z,0
2018-01-22T01:33:00.351Z,0
2018-01-22T01:34:01.806Z,0
2018-01-22T01:35:03.260Z,0
2018-01-22T01:36:04.673Z,0
2018-01-22T01:37:06.037Z,0
2018-01-22T01:38:07.483Z,0
2018-01-22T01:39:08.870Z,0
2018-01-22T01:40:10.330Z,0
2018-01-22T01:41:11.869Z,0
2018-01-22T01:42:13.302Z,0
2018-01-22T01:43:14.752Z,0
2018-01-22T01:44:16.167Z,0
2018-01-22T01:45:17.581Z,0
2018-01-22T01:46:18.962Z,0
2018-01-22T01:47:20.870Z,0
2018-01-22T01:48:22.301Z,0
2018-01-22T01:49:23.672Z,0
2018-01-22T01:50:25.362Z,0
2018-01-22T01:51:26.745Z,0
2018-01-22T01:52:28.806Z,0
2018-01-22T01:53:30.427Z,0
2018-01-22T01:54:31.845Z,0
2018-01-22T01:55:33.354Z,0
2018-01-22T01:56:34.726Z,0
2018-01-22T01:57:36.120Z,0
2018-01-22T01:58:37.535Z,0
2018-01-22T01:59:39.259Z,0
2018-01-22T02:00:40.659Z,0
2018-01-22T02:01:42.270Z,0
2018-01-22T02:02:43.790Z,0
2018-01-22T02:03:45.306Z,0
2018-01-22T02:04:46.798Z,0
2018-01-22T02:05:48.154Z,0
2018-01-22T02:06:49.662Z,0
2018-01-22T02:07:51.102Z,0
2018-01-22T02:08:52.510Z,0
2018-01-22T02:09:54.020Z,0
2018-01-22T02:10:55.488Z,0
2018-01-22T02:11:56.928Z,0
2018-01-22T02:12:58.728Z,0
2018-01-22T02:14:00.551Z,0
2018-01-22T02:15:01.984Z,0
2018-01-22T02:16:03.772Z,0
2018-01-22T02:17:05.610Z,0
2018-01-22T02:18:07.081Z,0
2018-01-22T02:19:09.460Z,0
2018-01-22T02:20:10.643Z,0
2018-01-22T02:21:12.258Z,0
2018-01-22T02:22:13.724Z,0
2018-01-22T02:23:15.323Z,0
2018-01-22T02:24:16.915Z,0
2018-01-22T02:25:18.308Z,0
2018-01-22T02:26:19.732Z,0
2018-01-22T02:27:21.164Z,0
2018-01-22T02:28:22.620Z,0
2018-01-22T02:29:24.096Z,0
2018-01-22T02:30:25.560Z,0
2018-01-22T02:31:26.949Z,0
2018-01-22T02:32:28.435Z,0
2018-01-22T02:33:29.797Z,0
2018-01-22T02:34:31.257Z,0
2018-01-22T02:35:32.842Z,0
2018-01-22T02:36:34.301Z,0
2018-01-22T02:37:35.695Z,0
2018-01-22T02:38:37.391Z,0
2018-01-22T02:39:39.014Z,0
2018-01-22T02:40:40.734Z,0
2018-01-22T02:41:42.112Z,0
2018-01-22T02:42:43.521Z,0
2018-01-22T02:43:44.886Z,0
2018-01-22T02:44:46.321Z,0
2018-01-22T02:45:48.220Z,0
2018-01-22T02:46:50.175Z,0
2018-01-22T02:47:51.972Z,0
2018-01-22T02:48:53.435Z,0
2018-01-22T02:49:54.813Z,0
2018-01-22T02:50:56.208Z,0
2018-01-22T02:51:57.650Z,0
2018-01-22T02:52:59.388Z,0
2018-01-22T02:54:00.798Z,0
2018-01-22T02:55:02.194Z,0
2018-01-22T02:56:03.606Z,0
2018-01-22T02:57:04.981Z,0
2018-01-22T02:58:06.453Z,0
2018-01-22T02:59:07.865Z,0
2018-01-22T03:00:09.344Z,0
2018-01-22T03:01:10.798Z,0
2018-01-22T03:02:12.260Z,0
2018-01-22T03:03:13.754Z,0
2018-01-22T03:04:15.169Z,0
2018-01-22T03:05:16.569Z,0
2018-01-22T03:06:17.982Z,0
2018-01-22T03:07:19.419Z,0
2018-01-22T03:08:20.811Z,0
2018-01-22T03:09:22.240Z,0
2018-01-22T03:10:23.666Z,0
2018-01-22T03:11:25.030Z,0
2018-01-22T03:12:26.399Z,0
2018-01-22T03:13:27.847Z,0
2018-01-22T03:14:29.857Z,0
2018-01-22T03:15:31.258Z,0
2018-01-22T03:16:32.645Z,0
2018-01-22T03:17:34.025Z,0
2018-01-22T03:18:35.413Z,0
2018-01-22T03:19:36.812Z,0
2018-01-22T03:20:38.240Z,0
2018-01-22T03:21:39.624Z,0
2018-01-22T03:22:41.007Z,0
2018-01-22T03:23:42.434Z,0
2018-01-22T03:24:43.880Z,0
2018-01-22T03:25:45.311Z,0
2018-01-22T03:26:46.752Z,0
2018-01-22T03:27:48.231Z,0
2018-01-22T03:28:49.932Z,0
2018-01-22T03:29:51.326Z,0
2018-01-22T03:30:52.754Z,0
2018-01-22T03:31:54.297Z,0
2018-01-22T03:32:55.679Z,0
2018-01-22T03:33:57.119Z,0
2018-01-22T03:34:58.531Z,0
2018-01-22T03:35:59.898Z,0
2018-01-22T03:37:01.359Z,0
2018-01-22T03:38:02.789Z,0
2018-01-22T03:39:04.190Z,0
2018-01-22T03:40:05.731Z,0
2018-01-22T03:41:07.165Z,0
2018-01-22T03:42:08.573Z,0
2018-01-22T03:43:10.036Z,0
2018-01-22T03:44:11.436Z,0
2018-01-22T03:45:12.881Z,0
2018-01-22T03:46:14.302Z,0
2018-01-22T03:47:15.796Z,0
2018-01-22T03:48:17.186Z,0
2018-01-22T03:49:18.603Z,0
2018-01-22T03:50:20.034Z,0
2018-01-22T03:51:21.500Z,0
2018-01-22T03:52:22.873Z,0
2018-01-22T03:53:24.265Z,0
2018-01-22T03:54:25.689Z,0
2018-01-22T03:55:27.166Z,0
2018-01-22T03:56:28.616Z,0
2018-01-22T03:57:30.011Z,0
2018-01-22T03:58:31.505Z,0
2018-01-22T03:59:32.919Z,0
2018-01-22T04:00:34.314Z,0
2018-01-22T04:01:36.041Z,0
2018-01-22T04:02:37.508Z,0
2018-01-22T04:03:39.051Z,0
2018-01-22T04:04:40.663Z,0
2018-01-22T04:05:42.185Z,0
2018-01-22T04:06:43.583Z,0
2018-01-22T04:07:44.992Z,0
2018-01-22T04:08:46.391Z,0
2018-01-22T04:09:47.968Z,0
2018-01-22T04:10:49.568Z,0
2018-01-22T04:11:51.002Z,0
2018-01-22T04:12:52.453Z,0
2018-01-22T04:13:53.824Z,0
2018-01-22T04:14:55.382Z,0
2018-01-22T04:15:56.796Z,0
2018-01-22T04:16:58.244Z,0
2018-01-22T04:17:59.775Z,0
2018-01-22T04:19:01.133Z,0
2018-01-22T04:20:02.608Z,0
2018-01-22T04:21:04.019Z,0
2018-01-22T04:22:06.019Z,0
2018-01-22T04:23:08.088Z,0
2018-01-22T04:24:09.800Z,0
2018-01-22T04:25:11.514Z,0
2018-01-22T04:26:13.259Z,0
2018-01-22T04:27:14.743Z,0
2018-01-22T04:28:16.226Z,0
2018-01-22T04:29:17.658Z,0
2018-01-22T04:30:19.076Z,0
2018-01-22T04:31:20.525Z,0
2018-01-22T04:32:21.957Z,0
2018-01-22T04:33:23.381Z,0
2018-01-22T04:34:24.745Z,0
2018-01-22T04:35:26.180Z,0
2018-01-22T04:36:27.750Z,0
2018-01-22T04:37:29.204Z,0
2018-01-22T04:38:30.657Z,0
2018-01-22T04:39:32.432Z,0
2018-01-22T04:40:33.827Z,0
2018-01-22T04:41:35.299Z,0
2018-01-22T04:42:36.833Z,0
2018-01-22T04:43:38.545Z,0
2018-01-22T04:44:40.021Z,0
2018-01-22T04:45:41.430Z,0
2018-01-22T04:46:42.846Z,0
2018-01-22T04:47:44.358Z,0
2018-01-22T04:48:45.792Z,0
2018-01-22T04:49:47.740Z,0
2018-01-22T04:50:49.125Z,0
2018-01-22T04:51:50.502Z,0
2018-01-22T04:52:51.928Z,0
2018-01-22T04:53:53.357Z,0
2018-01-22T04:54:54.739Z,0
2018-01-22T04:55:56.240Z,0
2018-01-22T04:56:57.669Z,0
2018-01-22T04:57:59.125Z,0
2018-01-22T04:59:00.523Z,0
2018-01-22T05:00:01.941Z,0
2018-01-22T05:01:03.461Z,0
2018-01-22T05:02:04.835Z,0
2018-01-22T05:03:06.362Z,0
2018-01-22T05:04:08.255Z,0
2018-01-22T05:05:10.003Z,0
2018-01-22T05:06:11.475Z,0
2018-01-22T05:07:12.896Z,0
2018-01-22T05:08:14.296Z,0
2018-01-22T05:09:15.800Z,0
2018-01-22T05:10:17.177Z,0
2018-01-22T05:11:18.636Z,0
2018-01-22T05:12:20.204Z,0
2018-01-22T05:13:22.211Z,0
2018-01-22T05:14:23.899Z,0
2018-01-22T05:15:25.575Z,0
2018-01-22T05:16:26.983Z,0
2018-01-22T05:17:28.449Z,0
2018-01-22T05:18:29.848Z,0
2018-01-22T05:19:31.304Z,0
2018-01-22T05:20:32.708Z,0
2018-01-22T05:21:34.103Z,0
2018-01-22T05:22:35.496Z,0
2018-01-22T05:23:36.878Z,0
2018-01-22T05:24:38.249Z,0
2018-01-22T05:25:39.657Z,0
2018-01-22T05:26:41.105Z,0
2018-01-22T05:27:42.471Z,0
2018-01-22T05:28:43.899Z,0
2018-01-22T05:29:45.293Z,0
2018-01-22T05:30:46.724Z,0
2018-01-22T05:31:48.206Z,0
2018-01-22T05:32:49.582Z,0
2018-01-22T05:33:51.019Z,0
2018-01-22T05:34:52.411Z,0
2018-01-22T05:35:53.814Z,0
2018-01-22T05:36:55.238Z,0
2018-01-22T05:37:56.694Z,0
2018-01-22T05:38:58.085Z,0
2018-01-22T05:39:59.466Z,0
2018-01-22T05:41:00.866Z,0
2018-01-22T05:42:02.249Z,0
2018-01-22T05:43:03.628Z,0
2018-01-22T05:44:05.005Z,0
2018-01-22T05:45:06.533Z,0
2018-01-22T05:46:07.928Z,0
2018-01-22T05:47:09.393Z,0
2018-01-22T05:48:10.782Z,0
2018-01-22T05:49:12.171Z,0
2018-01-22T05:50:13.539Z,0
2018-01-22T05:51:15.120Z,0
2018-01-22T05:52:16.587Z,0
2018-01-22T05:53:18.011Z,0
2018-01-22T05:54:19.416Z,0
2018-01-22T05:55:20.792Z,0
2018-01-22T05:56:22.204Z,0
2018-01-22T05:57:23.607Z,0
2018-01-22T05:58:25.057Z,0
2018-01-22T05:59:26.487Z,0
2018-01-22T06:00:27.858Z,0
2018-01-22T06:01:29.277Z,0
2018-01-22T06:02:30.694Z,0
2018-01-22T06:03:32.095Z,0
2018-01-22T06:04:33.598Z,0
2018-01-22T06:05:34.997Z,0
2018-01-22T06:06:36.415Z,0
2018-01-22T06:07:37.824Z,0
2018-01-22T06:08:39.290Z,0
2018-01-22T06:09:40.686Z,0
2018-01-22T06:10:42.158Z,0
2018-01-22T06:11:43.573Z,0
2018-01-22T06:12:44.997Z,0
2018-01-22T06:13:46.463Z,0
2018-01-22T06:14:47.889Z,0
2018-01-22T06:15:49.332Z,0
2018-01-22T06:16:50.787Z,0
2018-01-22T06:17:52.219Z,0
2018-01-22T06:18:53.603Z,0
2018-01-22T06:19:54.982Z,0
2018-01-22T06:20:56.360Z,0
2018-01-22T06:21:57.814Z,0
2018-01-22T06:22:59.201Z,0
2018-01-22T06:24:00.573Z,0
2018-01-22T06:25:02.054Z,0
2018-01-22T06:26:03.487Z,0
2018-01-22T06:27:04.944Z,0
2018-01-22T06:28:06.318Z,0
2018-01-22T06:29:07.760Z,0
2018-01-22T06:30:09.142Z,0
2018-01-22T06:31:10.602Z,0
2018-01-22T06:32:12.020Z,0
2018-01-22T06:33:13.387Z,0
2018-01-22T06:34:14.848Z,0
2018-01-22T06:35:16.212Z,0
2018-01-22T06:36:17.591Z,0
2018-01-22T06:37:18.992Z,0
2018-01-22T06:38:20.371Z,0
2018-01-22T06:39:21.785Z,0
2018-01-22T06:40:23.149Z,0
2018-01-22T06:41:24.568Z,0
2018-01-22T06:42:25.949Z,0
2018-01-22T06:43:27.358Z,0
2018-01-22T06:44:28.833Z,0
2018-01-22T06:45:30.255Z,0
2018-01-22T06:46:31.664Z,0
2018-01-22T06:47:33.068Z,0
2018-01-22T06:48:34.482Z,0
2018-01-22T06:49:35.914Z,0
2018-01-22T06:50:37.295Z,0
2018-01-22T06:51:38.778Z,0
2018-01-22T06:52:40.168Z,0
2018-01-22T06:53:41.631Z,0
2018-01-22T06:54:43.240Z,0
2018-01-22T06:55:44.598Z,0
2018-01-22T06:56:46.021Z,0
2018-01-22T06:57:47.468Z,0
2018-01-22T06:58:48.961Z,0
2018-01-22T06:59:50.369Z,0
2018-01-22T07:00:51.772Z,0
2018-01-22T07:01:53.836Z,0
2018-01-22T07:02:55.202Z,0
2018-01-22T07:03:56.619Z,0
2018-01-22T07:04:58.002Z,0
2018-01-22T07:05:59.423Z,0
2018-01-22T07:07:00.852Z,0
2018-01-22T07:08:02.224Z,0
2018-01-22T07:09:03.655Z,0
2018-01-22T07:10:05.055Z,0
2018-01-22T07:11:06.461Z,0
2018-01-22T07:12:07.907Z,0
2018-01-22T07:13:09.316Z,0
2018-01-22T07:14:11.513Z,0
2018-01-22T07:15:12.891Z,0
2018-01-22T07:16:14.261Z,0
2018-01-22T07:17:15.646Z,0
2018-01-22T07:18:17.130Z,0
2018-01-22T07:19:18.498Z,0
2018-01-22T07:20:19.874Z,0
2018-01-22T07:21:21.255Z,0
2018-01-22T07:22:22.672Z,0
2018-01-22T07:23:24.152Z,0
2018-01-22T07:24:25.575Z,0
2018-01-22T07:25:27.028Z,5
2018-01-22T07:26:28.399Z,5
2018-01-22T07:27:29.797Z,5
2018-01-22T07:28:31.254Z,5
2018-01-22T07:29:32.662Z,5
2018-01-22T07:30:34.122Z,5
2018-01-22T07:31:35.529Z,5
2018-01-22T07:32:36.969Z,5
2018-01-22T07:33:38.394Z,5
2018-01-22T07:34:39.862Z,10
2018-01-22T07:35:41.285Z,10
2018-01-22T07:36:42.677Z,10
2018-01-22T07:37:44.045Z,10
2018-01-22T07:38:45.462Z,10
2018-01-22T07:39:46.904Z,15
2018-01-22T07:40:48.324Z,15
2018-01-22T07:41:49.715Z,15
2018-01-22T07:42:51.163Z,15
2018-01-22T07:43:52.522Z,15
2018-01-22T07:44:53.891Z,15
2018-01-22T07:45:55.316Z,15
2018-01-22T07:46:56.698Z,15
2018-01-22T07:47:58.108Z,20
2018-01-22T07:48:59.510Z,15
2018-01-22T07:50:00.920Z,15
2018-01-22T07:51:02.360Z,15
2018-01-22T07:52:03.784Z,20
2018-01-22T07:53:05.166Z,20
2018-01-22T07:54:06.512Z,20
2018-01-22T07:55:07.957Z,20
2018-01-22T07:56:09.344Z,20
2018-01-22T07:57:10.723Z,20
2018-01-22T07:58:12.171Z,20
2018-01-22T07:59:13.553Z,20
2018-01-22T08:00:14.923Z,20
2018-01-22T08:01:16.308Z,25
2018-01-22T08:02:17.689Z,30
2018-01-22T08:03:19.079Z,30
2018-01-22T08:04:20.450Z,30
2018-01-22T08:05:21.844Z,30
2018-01-22T08:06:23.265Z,25
2018-01-22T08:07:24.684Z,20
2018-01-22T08:08:26.088Z,20
2018-01-22T08:09:27.542Z,20
2018-01-22T08:10:28.969Z,20
2018-01-22T08:11:30.409Z,20
2018-01-22T08:12:31.860Z,25
2018-01-22T08:13:33.265Z,25
2018-01-22T08:14:34.703Z,25
2018-01-22T08:15:36.061Z,25
2018-01-22T08:16:37.571Z,25
2018-01-22T08:17:38.942Z,25
2018-01-22T08:18:40.356Z,20
2018-01-22T08:19:41.784Z,20
2018-01-22T08:20:43.208Z,20
2018-01-22T08:21:44.582Z,20
2018-01-22T08:22:46.001Z,25
2018-01-22T08:23:47.430Z,25
2018-01-22T08:24:48.806Z,25
2018-01-22T08:25:50.273Z,25
2018-01-22T08:26:51.664Z,30
2018-01-22T08:27:53.040Z,30
2018-01-22T08:28:54.420Z,30
2018-01-22T08:29:55.863Z,35
2018-01-22T08:30:57.339Z,35
2018-01-22T08:31:58.771Z,35
2018-01-22T08:33:00.181Z,35
2018-01-22T08:34:01.560Z,40
2018-01-22T08:35:02.977Z,45
2018-01-22T08:36:04.364Z,50
2018-01-22T08:37:05.806Z,55
2018-01-22T08:38:07.224Z,65
2018-01-22T08:39:08.679Z,70
2018-01-22T08:40:10.115Z,70
2018-01-22T08:41:11.545Z,75
2018-01-22T08:42:12.963Z,70
2018-01-22T08:43:14.355Z,70
2018-01-22T08:44:15.776Z,65
2018-01-22T08:45:17.242Z,65
2018-01-22T08:46:18.605Z,60
2018-01-22T08:47:20.047Z,55
2018-01-22T08:48:21.406Z,50
2018-01-22T08:49:22.793Z,55
2018-01-22T08:50:24.187Z,50
2018-01-22T08:51:25.666Z,50
2018-01-22T08:52:27.079Z,50
2018-01-22T08:53:28.455Z,55
2018-01-22T08:54:29.826Z,55
2018-01-22T08:55:31.256Z,55
2018-01-22T08:56:32.694Z,50
2018-01-22T08:57:34.078Z,50
2018-01-22T08:58:35.474Z,45
2018-01-22T08:59:36.889Z,40
2018-01-22T09:00:38.315Z,35
2018-01-22T09:01:39.772Z,35
2018-01-22T09:02:41.203Z,35
2018-01-22T09:03:42.585Z,35
2018-01-22T09:04:44.000Z,30
2018-01-22T09:05:45.410Z,30
2018-01-22T09:06:46.806Z,35
2018-01-22T09:07:48.219Z,40
2018-01-22T09:08:49.620Z,45
2018-01-22T09:09:51.007Z,55
2018-01-22T09:10:52.483Z,55
2018-01-22T09:11:53.857Z,60
2018-01-22T09:12:55.267Z,85
2018-01-22T09:13:56.661Z,80
2018-01-22T09:14:58.064Z,80
2018-01-22T09:15:59.504Z,75
2018-01-22T09:17:00.913Z,95
2018-01-22T09:18:02.342Z,100
2018-01-22T09:19:03.747Z,95
2018-01-22T09:20:05.203Z,105
2018-01-22T09:21:06.668Z,115
2018-01-22T09:22:08.128Z,130
2018-01-22T09:23:09.509Z,130
2018-01-22T09:24:10.913Z,140
2018-01-22T09:25:12.307Z,145
2018-01-22T09:26:13.712Z,155
2018-01-22T09:27:15.147Z,150
2018-01-22T09:28:16.536Z,135
2018-01-22T09:29:17.942Z,145
2018-01-22T09:30:19.331Z,130
2018-01-22T09:31:20.752Z,135
2018-01-22T09:32:22.148Z,130
2018-01-22T09:33:23.564Z,130
2018-01-22T09:34:24.993Z,120
2018-01-22T09:35:26.376Z,105
2018-01-22T09:36:27.853Z,120
2018-01-22T09:37:29.229Z,120
2018-01-22T09:38:30.673Z,110
2018-01-22T09:39:32.130Z,100
2018-01-22T09:40:33.608Z,80
2018-01-22T09:41:35.034Z,65
2018-01-22T09:42:36.444Z,65
2018-01-22T09:43:37.905Z,75
2018-01-22T09:44:39.301Z,60
2018-01-22T09:45:40.684Z,40
2018-01-22T09:46:42.056Z,40
2018-01-22T09:47:43.456Z,40
2018-01-22T09:48:44.824Z,35
2018-01-22T09:49:46.263Z,45
2018-01-22T09:50:47.668Z,60
2018-01-22T09:51:49.077Z,60
2018-01-22T09:52:50.457Z,60
2018-01-22T09:53:51.830Z,60
2018-01-22T09:54:53.290Z,60
2018-01-22T09:55:54.671Z,85
2018-01-22T09:56:56.071Z,100
2018-01-22T09:57:57.492Z,125
2018-01-22T09:58:58.919Z,110
2018-01-22T10:00:00.323Z,100
2018-01-22T10:01:01.695Z,65
2018-01-22T10:02:03.099Z,65
2018-01-22T10:03:04.484Z,70
2018-01-22T10:04:05.892Z,75
2018-01-22T10:05:07.311Z,70
2018-01-22T10:06:08.678Z,70
2018-01-22T10:07:10.058Z,70
2018-01-22T10:08:11.440Z,75
2018-01-22T10:09:12.867Z,80
2018-01-22T10:10:14.243Z,65
2018-01-22T10:11:15.676Z,65
2018-01-22T10:12:17.087Z,50
2018-01-22T10:13:18.500Z,45
2018-01-22T10:14:19.887Z,45
2018-01-22T10:15:21.293Z,50
2018-01-22T10:16:22.701Z,65
2018-01-22T10:17:24.136Z,55
2018-01-22T10:18:25.507Z,55
2018-01-22T10:19:26.895Z,60
2018-01-22T10:20:28.327Z,55
2018-01-22T10:21:29.725Z,45
2018-01-22T10:22:31.149Z,40
2018-01-22T10:23:32.629Z,35
2018-01-22T10:24:33.975Z,35
2018-01-22T10:25:35.499Z,35
2018-01-22T10:26:36.813Z,35
2018-01-22T10:27:38.202Z,40
2018-01-22T10:28:39.582Z,35
2018-01-22T10:29:41.016Z,35
2018-01-22T10:30:42.462Z,35
2018-01-22T10:31:43.860Z,35
2018-01-22T10:32:45.241Z,45
2018-01-22T10:33:46.632Z,50
2018-01-22T10:34:48.027Z,55
2018-01-22T10:35:49.473Z,60
2018-01-22T10:36:50.959Z,70
2018-01-22T10:37:52.352Z,75
2018-01-22T10:38:53.727Z,80
2018-01-22T10:39:55.192Z,80
2018-01-22T10:40:56.595Z,90
2018-01-22T10:41:58.009Z,90
2018-01-22T10:42:59.395Z,80
2018-01-22T10:44:00.827Z,100
2018-01-22T10:45:02.231Z,100
2018-01-22T10:46:03.696Z,105
2018-01-22T10:47:05.172Z,95
2018-01-22T10:48:06.619Z,90
2018-01-22T10:49:08.078Z,90
2018-01-22T10:50:09.521Z,90
2018-01-22T10:51:10.933Z,90
2018-01-22T10:52:12.379Z,85
2018-01-22T10:53:13.820Z,80
2018-01-22T10:54:15.209Z,75
2018-01-22T10:55:16.636Z,70
2018-01-22T10:56:18.031Z,60
2018-01-22T10:57:19.406Z,55
2018-01-22T10:58:20.830Z,55
2018-01-22T10:59:22.217Z,45
2018-01-22T11:00:23.600Z,45
2018-01-22T11:01:25.034Z,45
2018-01-22T11:02:26.445Z,40
2018-01-22T11:03:27.845Z,40
2018-01-22T11:04:29.311Z,45
2018-01-22T11:05:30.738Z,50
2018-01-22T11:06:32.195Z,60
2018-01-22T11:07:33.682Z,65
2018-01-22T11:08:35.068Z,60
2018-01-22T11:09:36.568Z,65
2018-01-22T11:10:37.997Z,75
2018-01-22T11:11:39.383Z,90
2018-01-22T11:12:40.764Z,95
2018-01-22T11:13:42.178Z,95
2018-01-22T11:14:43.596Z,90
2018-01-22T11:15:44.982Z,90
2018-01-22T11:16:46.472Z,100
2018-01-22T11:17:47.950Z,90
2018-01-22T11:18:49.355Z,100
2018-01-22T11:19:50.789Z,100
2018-01-22T11:20:52.179Z,110
2018-01-22T11:21:53.591Z,85
2018-01-22T11:22:55.040Z,85
2018-01-22T11:23:56.472Z,85
2018-01-22T11:24:57.878Z,75
2018-01-22T11:25:59.338Z,80
2018-01-22T11:27:00.711Z,60
2018-01-22T11:28:02.175Z,75
2018-01-22T11:29:03.662Z,100
2018-01-22T11:30:05.180Z,105
2018-01-22T11:31:06.606Z,70
2018-01-22T11:32:08.098Z,55
2018-01-22T11:33:09.479Z,65
2018-01-22T11:34:10.877Z,70
2018-01-22T11:35:12.252Z,95
2018-01-22T11:36:13.727Z,105
2018-01-22T11:37:15.162Z,130
2018-01-22T11:38:16.620Z,125
2018-01-22T11:39:18.375Z,120
2018-01-22T11:40:19.734Z,145
2018-01-22T11:41:21.115Z,140
2018-01-22T11:42:22.896Z,150
2018-01-22T11:43:24.502Z,175
2018-01-22T11:44:25.874Z,195
2018-01-22T11:45:27.380Z,225
2018-01-22T11:46:28.788Z,265
2018-01-22T11:47:30.253Z,280
2018-01-22T11:48:31.697Z,280
2018-01-22T11:49:33.130Z,265
2018-01-22T11:50:34.590Z,255
2018-01-22T11:51:35.960Z,200
2018-01-22T11:52:37.432Z,245
2018-01-22T11:53:38.995Z,240
2018-01-22T11:54:40.571Z,210
2018-01-22T11:55:42.106Z,215
2018-01-22T11:56:43.947Z,250
2018-01-22T11:57:45.468Z,225
2018-01-22T11:58:46.850Z,210
2018-01-22T11:59:48.327Z,215
2018-01-22T12:00:49.774Z,265
2018-01-22T12:01:51.197Z,245
2018-01-22T12:02:52.641Z,275
2018-01-22T12:03:54.063Z,335
2018-01-22T12:04:55.533Z,365
2018-01-22T12:05:56.949Z,420
2018-01-22T12:06:58.380Z,355
2018-01-22T12:08:00.171Z,315
2018-01-22T12:09:01.968Z,260
2018-01-22T12:10:03.427Z,305
2018-01-22T12:11:04.823Z,295
2018-01-22T12:12:06.238Z,210
2018-01-22T12:13:08.078Z,245
2018-01-22T12:14:09.619Z,150
2018-01-22T12:15:11.016Z,180
2018-01-22T12:16:12.473Z,185
2018-01-22T12:17:13.910Z,160
2018-01-22T12:18:15.309Z,110
2018-01-22T12:19:16.714Z,80
2018-01-22T12:20:18.194Z,60
2018-01-22T12:21:19.637Z,55
2018-01-22T12:22:21.033Z,50
2018-01-22T12:23:22.446Z,35
2018-01-22T12:24:23.817Z,40
2018-01-22T12:25:25.260Z,35
2018-01-22T12:26:26.719Z,30
2018-01-22T12:27:28.110Z,30
2018-01-22T12:28:29.809Z,25
2018-01-22T12:29:31.764Z,30
2018-01-22T12:30:33.515Z,35
2018-01-22T12:31:34.943Z,25
2018-01-22T12:32:36.343Z,25
2018-01-22T12:33:37.773Z,45
2018-01-22T12:34:39.201Z,75
2018-01-22T12:35:40.691Z,70
2018-01-22T12:36:42.269Z,50
2018-01-22T12:37:43.833Z,55
2018-01-22T12:38:45.731Z,70
2018-01-22T12:39:47.364Z,80
2018-01-22T12:40:49.006Z,90
2018-01-22T12:41:50.863Z,105
2018-01-22T12:42:52.275Z,185
2018-01-22T12:43:53.786Z,225
2018-01-22T12:44:55.251Z,270
2018-01-22T12:45:56.790Z,300
2018-01-22T12:46:58.293Z,345
2018-01-22T12:47:59.680Z,365
2018-01-22T12:49:01.141Z,315
2018-01-22T12:50:02.536Z,325
2018-01-22T12:51:04.008Z,335
2018-01-22T12:52:06.031Z,295
2018-01-22T12:53:07.427Z,255
2018-01-22T12:54:08.856Z,260
2018-01-22T12:55:10.496Z,225
2018-01-22T12:56:11.924Z,210
2018-01-22T12:57:13.582Z,180
2018-01-22T12:58:15.015Z,170
2018-01-22T12:59:16.406Z,170
2018-01-22T13:00:17.845Z,175
2018-01-22T13:01:19.273Z,160
2018-01-22T13:02:20.665Z,135
2018-01-22T13:03:22.107Z,120
2018-01-22T13:04:23.536Z,120
2018-01-22T13:05:24.999Z,135
2018-01-22T13:06:26.419Z,135
2018-01-22T13:07:27.894Z,180
2018-01-22T13:08:29.312Z,145
2018-01-22T13:09:30.765Z,210
2018-01-22T13:10:32.233Z,195
2018-01-22T13:11:33.676Z,225
2018-01-22T13:12:35.125Z,165
2018-01-22T13:13:36.513Z,185
2018-01-22T13:14:37.921Z,180
2018-01-22T13:15:39.421Z,220
2018-01-22T13:16:40.805Z,245
2018-01-22T13:17:42.190Z,230
2018-01-22T13:18:43.689Z,225
2018-01-22T13:19:45.098Z,250
2018-01-22T13:20:46.492Z,230
2018-01-22T13:21:47.945Z,230
2018-01-22T13:22:49.366Z,230
2018-01-22T13:23:50.840Z,240
2018-01-22T13:24:52.220Z,210
2018-01-22T13:25:53.715Z,290
2018-01-22T13:26:55.096Z,315
2018-01-22T13:27:56.517Z,325
2018-01-22T13:28:58.055Z,320
2018-01-22T13:29:59.829Z,295
2018-01-22T13:31:01.262Z,275
2018-01-22T13:32:02.665Z,285
2018-01-22T13:33:04.124Z,315
2018-01-22T13:34:05.510Z,280
2018-01-22T13:35:06.895Z,260
2018-01-22T13:36:08.264Z,240
2018-01-22T13:37:09.667Z,225
2018-01-22T13:38:11.100Z,215
2018-01-22T13:39:12.512Z,155
2018-01-22T13:40:14.005Z,130
2018-01-22T13:41:15.468Z,200
2018-01-22T13:42:16.925Z,225
2018-01-22T13:43:18.365Z,160
2018-01-22T13:44:19.837Z,120
2018-01-22T13:45:21.624Z,160
2018-01-22T13:46:23.148Z,140
2018-01-22T13:47:24.572Z,135
2018-01-22T13:48:25.984Z,75
2018-01-22T13:49:27.385Z,90
2018-01-22T13:50:28.919Z,110
2018-01-22T13:51:30.353Z,110
2018-01-22T13:52:31.823Z,110
2018-01-22T13:53:33.276Z,115
2018-01-22T13:54:34.728Z,90
2018-01-22T13:55:36.222Z,90
2018-01-22T13:56:37.672Z,140
2018-01-22T13:57:39.090Z,135
2018-01-22T13:58:40.615Z,115
2018-01-22T13:59:42.122Z,135
2018-01-22T14:00:43.579Z,150
2018-01-22T14:01:44.990Z,160
2018-01-22T14:02:46.443Z,165
2018-01-22T14:03:47.842Z,165
2018-01-22T14:04:49.304Z,150
2018-01-22T14:05:50.791Z,145
2018-01-22T14:06:53.032Z,170
2018-01-22T14:07:54.439Z,175
2018-01-22T14:08:55.905Z,180
2018-01-22T14:09:57.416Z,180
2018-01-22T14:10:58.914Z,175
2018-01-22T14:12:00.349Z,170
2018-01-22T14:13:01.757Z,170
2018-01-22T14:14:03.223Z,160
2018-01-22T14:15:04.638Z,150
2018-01-22T14:16:06.048Z,135
2018-01-22T14:17:07.470Z,135
2018-01-22T14:18:08.969Z,130
2018-01-22T14:19:10.353Z,125
2018-01-22T14:20:11.785Z,115
2018-01-22T14:21:13.179Z,130
2018-01-22T14:22:14.587Z,150
2018-01-22T14:23:16.041Z,200
2018-01-22T14:24:17.825Z,215
2018-01-22T14:25:19.341Z,215
2018-01-22T14:26:20.737Z,195
2018-01-22T14:27:22.162Z,180
2018-01-22T14:28:23.553Z,170
2018-01-22T14:29:25.035Z,175
2018-01-22T14:30:26.483Z,165
2018-01-22T14:31:27.978Z,160
2018-01-22T14:32:29.413Z,135
2018-01-22T14:33:30.870Z,125
2018-01-22T14:34:32.272Z,120
2018-01-22T14:35:33.736Z,120
2018-01-22T14:36:35.211Z,110
2018-01-22T14:37:36.668Z,95
2018-01-22T14:38:38.051Z,85
2018-01-22T14:39:39.498Z,80
2018-01-22T14:40:40.988Z,95
2018-01-22T14:41:42.521Z,105
2018-01-22T14:42:44.032Z,110
2018-01-22T14:43:45.442Z,105
2018-01-22T14:44:46.895Z,115
2018-01-22T14:45:48.324Z,130